createdAt,value
2022-11-25T00:00:37.710Z,100503.72
2022-11-25T00:04:39.281Z,100497.69
2022-11-25T00:08:42.387Z,100501.81
2022-11-25T00:12:43.914Z,100492.25
2022-11-25T00:16:48.617Z,100494.75
2022-11-25T00:20:50.497Z,100485.19
2022-11-25T00:24:52.054Z,100485.88
2022-11-25T00:28:54.126Z,100498.44
2022-11-25T00:32:55.666Z,100493.13
2022-11-25T00:36:57.179Z,100492.16
2022-11-25T00:41:17.505Z,100492.16
2022-11-25T00:45:19.076Z,100483.25
2022-11-25T00:49:20.645Z,100485.63
2022-11-25T00:53:22.184Z,100491.84
2022-11-25T00:57:23.904Z,100490.22
2022-11-25T01:01:26.830Z,100491.28
2022-11-25T01:05:28.388Z,100492.06
2022-11-25T01:09:30.929Z,100497.78
2022-11-25T01:13:33.212Z,100496.75
2022-11-25T01:17:34.770Z,100506.38
2022-11-25T01:21:36.374Z,100513.47
2022-11-25T01:25:39.165Z,100518.59
2022-11-25T01:29:42.894Z,100531.75
2022-11-25T01:33:45.371Z,100532.78
2022-11-25T01:37:47.002Z,100525.25
2022-11-25T01:41:49.193Z,100520.78
2022-11-25T01:45:50.905Z,100510.97
2022-11-25T01:50:10.789Z,100520.38
2022-11-25T01:54:15.634Z,100519.69
2022-11-25T01:58:35.633Z,100523.47
2022-11-25T02:02:37.189Z,100520.44
2022-11-25T02:06:54.137Z,100527.25
2022-11-25T02:10:57.541Z,100523.03
2022-11-25T02:14:59.725Z,100510.69
2022-11-25T02:19:03.526Z,100521.16
2022-11-25T02:23:29.680Z,100526.34
2022-11-25T02:27:34.132Z,100521.44
2022-11-25T02:31:35.817Z,100513.72
2022-11-25T02:35:40.357Z,100502.44
2022-11-25T02:39:42.305Z,100502.09
2022-11-25T02:43:44.573Z,100502.44
2022-11-25T02:47:46.202Z,100508.22
2022-11-25T02:51:47.806Z,100502.38
2022-11-25T02:55:52.438Z,100499.66
2022-11-25T02:59:54.027Z,100502.53
2022-11-25T03:03:55.716Z,100509.34
2022-11-25T03:07:57.376Z,100492.25
2022-11-25T03:12:18.250Z,100499.88
2022-11-25T03:16:20.192Z,100501.50
2022-11-25T03:20:21.808Z,100506.09
2022-11-25T03:24:23.434Z,100492.88
2022-11-25T03:28:25.109Z,100483.75
2022-11-25T03:32:27.743Z,100485.66
2022-11-25T03:36:29.943Z,100492.25
2022-11-25T03:40:31.509Z,100487.19
2022-11-25T03:44:34.028Z,100495.53
2022-11-25T03:48:36.440Z,100482.97
2022-11-25T03:52:38.720Z,100478.84
2022-11-25T03:56:41.327Z,100490.91
2022-11-25T04:00:42.903Z,100485.22
2022-11-25T04:04:44.474Z,100474.47
2022-11-25T04:08:46.585Z,100480.69
2022-11-25T04:12:48.750Z,100483.22
2022-11-25T04:16:54.690Z,100486.78
2022-11-25T04:20:56.506Z,100494.50
2022-11-25T04:24:58.141Z,100495.41
2022-11-25T04:29:01.347Z,100498.88
2022-11-25T04:33:03.161Z,100498.25
2022-11-25T04:37:04.898Z,100496.72
2022-11-25T04:41:06.791Z,100479.78
2022-11-25T04:45:25.167Z,100467.56
2022-11-25T04:49:29.497Z,100457.94
2022-11-25T04:53:31.137Z,100444.03
2022-11-25T04:57:32.979Z,100429.56
2022-11-25T05:01:34.854Z,100435.31
2022-11-25T05:05:59.529Z,100462.63
2022-11-25T05:10:02.087Z,100474.63
2022-11-25T05:14:16.776Z,100494.09
2022-11-25T05:18:19.035Z,100494.09
2022-11-25T05:22:26.573Z,100493.84
2022-11-25T05:26:28.086Z,100503.75
2022-11-25T05:30:32.810Z,100511.69
2022-11-25T05:34:35.138Z,100506.66
2022-11-25T05:38:37.586Z,100510.09
2022-11-25T05:42:39.365Z,100509.44
2022-11-25T05:46:49.063Z,100512.25
2022-11-25T05:50:51.450Z,100511.91
2022-11-25T05:54:57.570Z,100515.97
2022-11-25T05:59:00.488Z,100519.16
2022-11-25T06:03:14.891Z,100527.66
2022-11-25T06:07:16.819Z,100535.44
2022-11-25T06:11:19.249Z,100539.13
2022-11-25T06:15:21.254Z,100546.09
2022-11-25T06:19:24.473Z,100539.28
2022-11-25T06:23:26.549Z,100529.81
2022-11-25T06:27:43.960Z,100537.91
2022-11-25T06:31:50.525Z,100552.44
2022-11-25T06:36:07.325Z,100553.16
2022-11-25T06:40:09.236Z,100566.69
2022-11-25T06:44:10.879Z,100565.66
2022-11-25T06:48:12.431Z,100586.19
2022-11-25T06:52:14.030Z,100595.09
2022-11-25T06:56:24.980Z,100595.97
2022-11-25T07:00:26.633Z,100590.00
2022-11-25T07:04:28.365Z,100599.75
2022-11-25T07:08:33.926Z,100605.66
2022-11-25T07:12:36.077Z,100616.00
2022-11-25T07:16:39.692Z,100610.41
2022-11-25T07:20:41.276Z,100593.00
2022-11-25T07:24:42.824Z,100584.88
2022-11-25T07:28:44.927Z,100582.88
2022-11-25T07:32:46.502Z,100584.47
2022-11-25T07:36:49.884Z,100601.56
2022-11-25T07:40:51.414Z,100605.41
2022-11-25T07:44:52.929Z,100604.13
2022-11-25T07:49:26.811Z,100598.41
2022-11-25T07:53:28.353Z,100610.25
2022-11-25T07:57:29.855Z,100612.75
2022-11-25T08:01:31.381Z,100619.66
2022-11-25T08:05:33.886Z,100623.34
2022-11-25T08:09:35.875Z,100626.22
2022-11-25T08:13:38.242Z,100623.97
2022-11-25T08:17:39.772Z,100632.75
2022-11-25T08:21:42.087Z,100631.53
2022-11-25T08:25:50.114Z,100623.19
2022-11-25T08:29:52.068Z,100625.19
2022-11-25T08:33:54.950Z,100626.00
2022-11-25T08:37:56.515Z,100623.19
2022-11-25T08:41:58.054Z,100629.47
2022-11-25T08:45:59.689Z,100632.56
2022-11-25T08:50:01.357Z,100636.13
2022-11-25T08:54:04.334Z,100651.56
2022-11-25T08:58:10.029Z,100645.84
2022-11-25T09:02:14.633Z,100635.66
2022-11-25T09:06:17.564Z,100650.44
2022-11-25T09:10:19.111Z,100655.25
2022-11-25T09:14:20.677Z,100654.69
2022-11-25T09:18:26.113Z,100649.34
2022-11-25T09:22:27.654Z,100661.72
2022-11-25T09:26:35.477Z,100673.13
2022-11-25T09:30:37.259Z,100674.28
2022-11-25T09:34:39.181Z,100670.38
2022-11-25T09:38:44.030Z,100675.91
2022-11-25T09:43:21.846Z,100682.84
2022-11-25T09:47:34.013Z,100692.38
2022-11-25T09:52:03.767Z,100691.50
2022-11-25T09:56:14.324Z,100684.59
2022-11-25T10:00:20.199Z,100696.75
2022-11-25T10:04:27.172Z,100699.97
2022-11-25T10:08:34.039Z,100694.84
2022-11-25T10:12:42.263Z,100716.00
2022-11-25T10:16:56.641Z,100709.50
2022-11-25T10:20:58.245Z,100715.31
2022-11-25T10:25:16.590Z,100723.56
2022-11-25T10:29:27.446Z,100724.53
2022-11-25T10:33:44.908Z,100712.13
2022-11-25T10:37:48.923Z,100723.63
2022-11-25T10:42:04.795Z,100710.41
2022-11-25T10:46:22.096Z,100718.50
2022-11-25T10:50:37.461Z,100719.28
2022-11-25T10:54:41.224Z,100714.06
2022-11-25T10:58:43.046Z,100717.59
2022-11-25T11:02:48.366Z,100711.91
2022-11-25T11:06:51.114Z,100719.06
2022-11-25T11:11:12.802Z,100719.31
2022-11-25T11:15:44.825Z,100728.75
2022-11-25T11:20:13.076Z,100724.66
2022-11-25T11:24:31.994Z,100724.88
2022-11-25T11:28:36.950Z,100737.44
2022-11-25T11:32:42.327Z,100728.81
2022-11-25T11:36:57.534Z,100739.13
2022-11-25T11:41:26.851Z,100740.94
2022-11-25T11:45:51.900Z,100737.97
2022-11-25T11:50:18.531Z,100735.75
2022-11-25T11:54:28.890Z,100738.66
2022-11-25T11:58:58.488Z,100747.88
2022-11-25T12:03:21.936Z,100745.44
2022-11-25T12:07:26.402Z,100750.09
2022-11-25T12:11:36.832Z,100752.44
2022-11-25T12:16:01.583Z,100762.19
2022-11-25T12:20:13.337Z,100760.59
2022-11-25T12:24:26.727Z,100759.50
2022-11-25T12:28:39.694Z,100766.69
2022-11-25T12:32:48.272Z,100770.13
2022-11-25T12:37:02.806Z,100769.41
2022-11-25T12:41:24.832Z,100769.16
2022-11-25T12:45:26.493Z,100771.47
2022-11-25T12:49:50.877Z,100782.03
2022-11-25T12:53:52.438Z,100785.38
2022-11-25T12:57:56.928Z,100793.63
2022-11-25T13:02:35.100Z,100786.28
2022-11-25T13:07:14.277Z,100801.72
2022-11-25T13:11:25.199Z,100813.69
2022-11-25T13:15:45.977Z,100828.41
2022-11-25T13:19:47.942Z,100817.41
2022-11-25T13:23:52.605Z,100833.28
2022-11-25T13:27:54.068Z,100843.59
2022-11-25T13:32:00.085Z,100830.13
2022-11-25T13:36:22.300Z,100830.06
2022-11-25T13:40:23.976Z,100842.84
2022-11-25T13:44:29.617Z,100845.34
2022-11-25T13:48:36.943Z,100851.28
2022-11-25T13:52:38.536Z,100859.00
2022-11-25T13:56:40.148Z,100858.97
2022-11-25T14:00:49.594Z,100870.88
2022-11-25T14:05:11.387Z,100869.25
2022-11-25T14:09:20.292Z,100887.78
2022-11-25T14:13:49.525Z,100876.34
2022-11-25T14:18:44.463Z,100884.72
2022-11-25T14:23:09.044Z,100890.63
2022-11-25T14:27:17.396Z,100889.75
2022-11-25T14:31:24.583Z,100905.03
2022-11-25T14:35:41.630Z,100909.13
2022-11-25T14:40:06.499Z,100909.13
2022-11-25T14:44:17.011Z,100921.91
2022-11-25T14:48:23.900Z,100921.19
2022-11-25T14:52:28.536Z,100927.69
2022-11-25T14:56:33.797Z,100944.03
2022-11-25T15:00:49.412Z,100949.75
2022-11-25T15:04:51.016Z,100944.44
2022-11-25T15:08:58.122Z,100951.25
2022-11-25T15:13:04.392Z,100951.03
2022-11-25T15:17:20.599Z,100958.56
2022-11-25T15:21:27.499Z,100962.72
2022-11-25T15:25:29.037Z,100972.72
2022-11-25T15:29:31.327Z,100978.53
2022-11-25T15:33:33.094Z,100980.94
2022-11-25T15:37:34.749Z,100982.69
2022-11-25T15:41:36.765Z,100996.34
2022-11-25T15:45:45.189Z,101006.53
2022-11-25T15:49:51.730Z,101000.47
2022-11-25T15:53:56.829Z,101014.22
2022-11-25T15:58:15.987Z,101008.22
2022-11-25T16:02:36.794Z,101014.06
2022-11-25T16:06:52.938Z,101004.41
2022-11-25T16:10:57.715Z,101019.69
2022-11-25T16:14:59.308Z,101016.09
2022-11-25T16:19:09.935Z,101023.69
2022-11-25T16:23:15.524Z,101019.84
2022-11-25T16:27:23.588Z,101024.34
2022-11-25T16:31:26.387Z,101036.19
2022-11-25T16:35:27.892Z,101043.03
2022-11-25T16:39:29.466Z,101038.81
2022-11-25T16:43:31.028Z,101050.53
2022-11-25T16:47:32.592Z,101059.66
2022-11-25T16:51:34.212Z,101064.16
2022-11-25T16:55:37.545Z,101071.88
2022-11-25T16:59:42.121Z,101070.19
2022-11-25T17:03:43.872Z,101083.94
2022-11-25T17:07:45.532Z,101089.56
2022-11-25T17:11:54.754Z,101087.56
2022-11-25T17:15:56.530Z,101084.59
2022-11-25T17:19:58.205Z,101095.38
2022-11-25T17:24:02.739Z,101110.53
2022-11-25T17:28:04.743Z,101119.59
2022-11-25T17:32:06.637Z,101123.59
2022-11-25T17:36:10.737Z,101134.44
2022-11-25T17:40:13.424Z,101142.69
2022-11-25T17:44:22.882Z,101141.63
2022-11-25T17:48:24.605Z,101151.69
2022-11-25T17:52:26.321Z,101160.94
2022-11-25T17:56:30.263Z,101165.06
2022-11-25T18:00:34.217Z,101164.00
2022-11-25T18:04:36.266Z,101172.66
2022-11-25T18:08:38.163Z,101177.75
2022-11-25T18:12:40.297Z,101183.91
2022-11-25T18:16:42.666Z,101184.06
2022-11-25T18:20:44.276Z,101190.38
2022-11-25T18:24:46.578Z,101185.84
2022-11-25T18:28:48.503Z,101198.13
2022-11-25T18:32:50.264Z,101200.22
2022-11-25T18:36:52.776Z,101206.47
2022-11-25T18:40:55.277Z,101220.44
2022-11-25T18:44:57.072Z,101223.09
2022-11-25T18:48:58.716Z,101223.25
2022-11-25T18:53:00.373Z,101221.66
2022-11-25T18:57:02.122Z,101229.13
2022-11-25T19:01:10.708Z,101241.31
2022-11-25T19:05:19.755Z,101249.78
2022-11-25T19:09:21.434Z,101266.03
2022-11-25T19:13:30.666Z,101273.63
2022-11-25T19:17:32.599Z,101279.34
2022-11-25T19:21:34.781Z,101287.88
2022-11-25T19:25:36.744Z,101297.34
2022-11-25T19:29:42.233Z,101307.44
2022-11-25T19:33:51.998Z,101316.00
2022-11-25T19:37:53.844Z,101324.63
2022-11-25T19:41:57.907Z,101324.78
2022-11-25T19:45:59.863Z,101334.25
2022-11-25T19:50:02.152Z,101336.31
2022-11-25T19:54:03.952Z,101350.16
2022-11-25T19:58:05.535Z,101351.13
2022-11-25T20:02:14.406Z,101357.91
2022-11-25T20:06:18.566Z,101356.22
2022-11-25T20:10:22.941Z,101365.66
2022-11-25T20:14:24.635Z,101379.31
2022-11-25T20:18:27.423Z,101373.41
2022-11-25T20:22:33.896Z,101383.47
2022-11-25T20:26:37.546Z,101382.47
2022-11-25T20:30:39.214Z,101397.03
2022-11-25T20:34:42.389Z,101404.00
2022-11-25T20:38:54.370Z,101410.06
2022-11-25T20:42:57.170Z,101419.50
2022-11-25T20:46:58.722Z,101415.97
2022-11-25T20:51:02.164Z,101428.47
2022-11-25T20:55:16.643Z,101433.34
2022-11-25T20:59:23.726Z,101440.84
2022-11-25T21:03:25.963Z,101441.38
2022-11-25T21:07:27.533Z,101446.09
2022-11-25T21:11:32.898Z,101453.53
2022-11-25T21:15:34.527Z,101458.88
2022-11-25T21:19:36.099Z,101465.25
2022-11-25T21:23:37.952Z,101458.88
2022-11-25T21:27:40.876Z,101465.22
2022-11-25T21:31:42.536Z,101468.03
2022-11-25T21:35:46.533Z,101466.41
2022-11-25T21:39:48.127Z,101469.38
2022-11-25T21:43:50.872Z,101482.03
2022-11-25T21:47:52.469Z,101492.44
2022-11-25T21:51:54.279Z,101494.00
2022-11-25T21:55:56.005Z,101496.47
2022-11-25T21:59:57.517Z,101499.03
2022-11-25T22:03:59.375Z,101505.53
2022-11-25T22:08:01.165Z,101504.28
2022-11-25T22:12:04.994Z,101510.81
2022-11-25T22:16:06.895Z,101514.94
2022-11-25T22:20:35.996Z,101515.88
2022-11-25T22:24:37.823Z,101509.22
2022-11-25T22:28:39.852Z,101521.53
2022-11-25T22:32:41.411Z,101519.72
2022-11-25T22:36:43.248Z,101520.22
2022-11-25T22:40:50.362Z,101525.88
2022-11-25T22:44:53.013Z,101527.25
2022-11-25T22:48:55.141Z,101532.63
2022-11-25T22:52:57.354Z,101546.25
2022-11-25T22:56:59.096Z,101545.38
2022-11-25T23:01:00.698Z,101559.59
2022-11-25T23:05:02.867Z,101564.59
2022-11-25T23:09:10.106Z,101568.47
2022-11-25T23:13:12.217Z,101571.81
2022-11-25T23:17:22.989Z,101582.19
2022-11-25T23:21:29.048Z,101590.63
2022-11-25T23:25:30.558Z,101594.63
2022-11-25T23:29:32.166Z,101596.88
2022-11-25T23:33:39.090Z,101595.81
2022-11-25T23:37:40.842Z,101587.06
2022-11-25T23:41:42.358Z,101598.59
2022-11-25T23:45:51.146Z,101603.97
2022-11-25T23:50:01.187Z,101616.19
2022-11-25T23:54:02.725Z,101615.28
2022-11-25T23:58:15.252Z,101615.28
